Time;durP1;ratioP1;P1;durP2;ratioP2;P2;SDS_P1;SDS_P2;PMS_P1;PMS_P2;Temp;Humidity;BMP_temperature;BMP_pressure;BME280_temperature;BME280_humidity;BME280_pressure;Samples;Min_cycle;Max_cycle;Signal;HPM_P1;HPM_P2
2021/12/15 00:01:59;;;;;;;87.40;39.93;;;;;;;6.25;86.61;101849.22;5033579;28;20391;-79
2021/12/15 00:04:24;;;;;;;88.00;40.50;;;;;;;6.23;85.91;101849.41;5036878;28;20420;-79
2021/12/15 00:06:50;;;;;;;93.23;40.27;;;;;;;6.22;86.10;101852.28;5036430;28;20398;-79
2021/12/15 00:09:15;;;;;;;91.73;40.80;;;;;;;6.22;85.75;101852.28;5035849;28;20409;-79
2021/12/15 00:11:41;;;;;;;91.05;39.92;;;;;;;6.20;86.45;101857.84;5041133;28;20425;-79
2021/12/15 00:14:14;;;;;;;87.32;39.53;;;;;;;6.20;86.42;101849.75;5041572;28;20413;-79
2021/12/15 00:16:40;;;;;;;92.40;40.05;;;;;;;6.23;86.60;101852.09;5041560;28;20516;-79
2021/12/15 00:19:06;;;;;;;94.82;41.30;;;;;;;6.25;86.43;101851.94;5035226;28;20398;-79
2021/12/15 00:21:32;;;;;;;94.53;43.45;;;;;;;6.25;85.63;101847.38;5030845;28;20407;-79
2021/12/15 00:23:57;;;;;;;94.32;41.95;;;;;;;6.27;86.28;101841.78;5032526;28;20913;-79
2021/12/15 00:26:24;;;;;;;96.53;42.33;;;;;;;6.27;85.73;101841.78;5033814;28;20518;-79
2021/12/15 00:28:50;;;;;;;96.03;42.80;;;;;;;6.29;85.74;101842.44;5044826;28;20458;-79
2021/12/15 00:31:16;;;;;;;91.32;39.83;;;;;;;6.30;85.66;101845.97;5032066;28;20438;-79
2021/12/15 00:33:42;;;;;;;84.25;40.08;;;;;;;6.30;85.92;101843.28;5045730;28;20389;-79
2021/12/15 00:36:08;;;;;;;94.18;40.97;;;;;;;6.26;86.00;101837.41;5043740;28;20443;-79
2021/12/15 00:38:34;;;;;;;81.78;38.67;;;;;;;6.29;86.07;101847.00;5041937;28;20892;-79
2021/12/15 00:41:00;;;;;;;88.68;39.35;;;;;;;6.30;85.27;101837.91;5035452;28;20455;-79
2021/12/15 00:43:26;;;;;;;89.47;39.65;;;;;;;6.32;85.43;101838.56;5045001;28;20845;-79
2021/12/15 00:45:52;;;;;;;94.10;41.45;;;;;;;6.31;85.71;101840.41;5043623;28;20394;-79
2021/12/15 00:48:18;;;;;;;88.90;40.73;;;;;;;6.32;85.62;101834.03;5048105;28;20910;-79
2021/12/15 00:50:45;;;;;;;98.93;42.93;;;;;;;6.31;85.94;101834.19;5033372;28;20418;-79
2021/12/15 00:53:11;;;;;;;94.70;39.50;;;;;;;6.30;85.90;101824.44;5042982;28;20446;-79
2021/12/15 00:55:38;;;;;;;99.72;40.47;;;;;;;6.28;85.75;101827.31;5037215;28;20441;-79
2021/12/15 00:58:05;;;;;;;99.82;42.72;;;;;;;6.27;85.98;101831.03;5049609;28;20960;-78
2021/12/15 01:00:45;;;;;;;100.18;42.65;;;;;;;6.28;86.55;101837.25;5033303;28;20403;-79
2021/12/15 01:03:10;;;;;;;90.95;40.03;;;;;;;6.27;86.13;101833.72;5044763;28;20417;-79
2021/12/15 01:05:41;;;;;;;89.90;40.00;;;;;;;6.26;86.27;101835.56;5047920;28;20432;-79
2021/12/15 01:08:10;;;;;;;98.10;41.08;;;;;;;6.25;86.14;101831.22;5035706;28;20469;-79
2021/12/15 01:19:48;;;;;;;93.00;40.50;;;;;;;6.26;86.26;101846.34;5046009;28;20820;-79
2021/12/15 01:21:53;;;;;;;82.70;37.47;;;;;;;6.26;86.00;101851.72;5037963;28;20409;-79
2021/12/15 01:24:19;;;;;;;78.00;39.05;;;;;;;6.26;85.83;101843.66;5039372;28;20411;-79
2021/12/15 01:26:45;;;;;;;92.07;40.72;;;;;;;6.27;85.75;101844.47;5039373;28;20447;-79
2021/12/15 01:29:10;;;;;;;79.80;39.47;;;;;;;6.29;85.56;101852.41;5046070;28;20395;-79
2021/12/15 01:31:36;;;;;;;81.25;37.00;;;;;;;6.28;85.77;101853.41;5045023;28;20424;-79
2021/12/15 01:34:01;;;;;;;74.78;36.20;;;;;;;6.25;85.52;101847.38;5032003;28;20414;-79
2021/12/15 01:36:27;;;;;;;72.90;35.33;;;;;;;6.25;85.80;101855.47;5031512;28;20411;-79
2021/12/15 01:38:52;;;;;;;79.27;36.97;;;;;;;6.26;85.70;101848.19;5041075;28;20887;-79
2021/12/15 01:41:21;;;;;;;76.00;34.67;;;;;;;6.28;85.72;101839.94;5031061;28;20423;-79
2021/12/15 01:46:55;;;;;;;71.88;35.45;;;;;;;6.29;86.04;101849.69;5040620;28;20492;-79
2021/12/15 01:49:26;;;;;;;66.80;34.75;;;;;;;6.28;85.74;101853.41;5034861;28;20446;-79
2021/12/15 01:51:51;;;;;;;76.15;36.05;;;;;;;6.26;85.63;101851.72;5031306;28;20403;-79
2021/12/15 01:54:18;;;;;;;68.18;34.40;;;;;;;6.25;85.49;101857.31;5029854;28;20414;-79
2021/12/15 01:56:44;;;;;;;72.70;36.22;;;;;;;6.24;85.96;101856.47;5045158;28;20414;-79
2021/12/15 01:59:12;;;;;;;85.97;39.10;;;;;;;6.24;85.78;101856.47;5037547;28;20504;-79
2021/12/15 02:01:38;;;;;;;84.90;39.33;;;;;;;6.26;86.02;101862.50;5048619;28;20400;-79
2021/12/15 02:04:03;;;;;;;84.37;38.57;;;;;;;6.26;85.87;101865.19;5038544;28;20397;-79
2021/12/15 02:06:29;;;;;;;85.57;39.03;;;;;;;6.26;86.17;101864.34;5031862;28;20456;-78
2021/12/15 02:08:54;;;;;;;82.30;38.37;;;;;;;6.25;85.91;101858.16;5034761;28;20513;-79
2021/12/15 02:11:20;;;;;;;71.03;35.92;;;;;;;6.24;86.15;101861.84;5032555;28;20407;-79
2021/12/15 02:13:45;;;;;;;80.15;38.22;;;;;;;6.25;85.81;101851.94;5039549;28;20464;-79
2021/12/15 02:16:11;;;;;;;76.60;35.70;;;;;;;6.25;85.88;101855.47;5041231;28;20460;-79
2021/12/15 02:18:42;;;;;;;72.53;36.08;;;;;;;6.26;86.20;101856.25;5044793;28;20394;-79
2021/12/15 02:21:13;;;;;;;73.50;34.80;;;;;;;6.24;86.51;101858.31;5040956;28;20398;-79
2021/12/15 02:23:44;;;;;;;71.00;32.80;;;;;;;6.24;85.97;101855.63;5030926;28;20422;-79
2021/12/15 02:26:22;;;;;;;67.53;34.20;;;;;;;6.22;86.53;101857.66;5041679;28;20556;-79
2021/12/15 02:28:52;;;;;;;67.35;33.45;;;;;;;6.21;85.71;101854.13;5052115;28;20424;-79
2021/12/15 02:31:40;;;;;;;72.30;34.03;;;;;;;6.23;85.88;101856.63;5039919;28;20403;-79
2021/12/15 02:34:33;;;;;;;68.55;34.08;;;;;;;6.24;86.03;101847.53;5034744;28;20399;-79
2021/12/15 02:37:17;;;;;;;64.18;33.38;;;;;;;6.25;85.61;101852.75;5048020;28;20423;-79
2021/12/15 02:39:47;;;;;;;69.28;32.95;;;;;;;6.25;85.53;101850.06;5036096;28;20383;-79
2021/12/15 02:42:12;;;;;;;71.50;34.30;;;;;;;6.25;85.89;101842.00;5048416;28;20417;-79
2021/12/15 02:44:43;;;;;;;78.05;36.33;;;;;;;6.24;85.60;101847.53;5038136;28;21978;-79
2021/12/15 02:47:10;;;;;;;71.03;34.63;;;;;;;6.23;85.91;101844.00;5060619;28;20406;-79
2021/12/15 02:49:35;;;;;;;76.63;35.20;;;;;;;6.25;85.84;101846.53;5034352;28;20410;-79
2021/12/15 02:52:00;;;;;;;74.53;34.83;;;;;;;6.25;85.67;101843.84;5034463;28;20411;-79
2021/12/15 02:54:27;;;;;;;70.77;34.73;;;;;;;6.26;85.78;101848.19;5040412;28;20476;-79
2021/12/15 02:56:54;;;;;;;79.85;35.92;;;;;;;6.26;85.72;101851.72;5049228;28;20453;-79
2021/12/15 02:59:30;;;;;;;70.55;35.17;;;;;;;6.25;85.74;101844.69;5038354;28;20401;-79
2021/12/15 03:02:06;;;;;;;76.45;36.00;;;;;;;6.24;86.12;101848.38;5045293;28;20405;-79
2021/12/15 03:05:02;;;;;;;69.78;33.50;;;;;;;6.21;86.52;101843.38;5050342;28;20418;-79
2021/12/15 03:15:34;;;;;;;96.18;41.50;;;;;;;6.06;86.97;101850.56;5034084;28;20422;-79
2021/12/15 03:18:02;;;;;;;97.70;41.40;;;;;;;6.03;87.16;101855.47;5047153;28;21148;-79
2021/12/15 03:20:30;;;;;;;104.25;43.45;;;;;;;6.05;87.56;101858.84;5038925;28;20397;-79
2021/12/15 03:22:57;;;;;;;97.63;42.38;;;;;;;6.06;87.23;101853.25;5043754;28;20400;-79
2021/12/15 03:25:24;;;;;;;102.22;42.50;;;;;;;6.06;87.25;101855.13;5046881;28;20416;-79
2021/12/15 03:36:23;;;;;;;111.28;46.13;;;;;;;6.02;87.85;101849.28;5033880;28;20420;-79
2021/12/15 03:38:48;;;;;;;103.80;45.00;;;;;;;6.02;87.93;101848.44;5042478;28;20387;-79
2021/12/15 03:41:13;;;;;;;94.28;43.35;;;;;;;6.07;87.78;101849.56;5039144;28;20438;-79
2021/12/15 03:43:39;;;;;;;82.40;41.87;;;;;;;6.03;87.42;101845.53;5048554;28;20411;-79
2021/12/15 03:46:11;;;;;;;103.53;45.50;;;;;;;6.07;87.93;101848.72;5038045;28;20412;-79
2021/12/15 03:48:42;;;;;;;103.00;45.10;;;;;;;6.12;87.40;101852.56;5048676;28;20487;-79
2021/12/15 03:51:08;;;;;;;110.93;45.70;;;;;;;6.16;87.31;101853.00;5043388;28;20992;-79
2021/12/15 03:53:34;;;;;;;109.90;44.80;;;;;;;6.17;87.21;101849.28;5048260;28;20420;-79
2021/12/15 03:56:01;;;;;;;108.95;45.47;;;;;;;6.17;86.86;101843.91;5034728;28;20447;-79
2021/12/15 03:58:27;;;;;;;118.32;46.72;;;;;;;6.16;87.06;101859.22;5034868;28;20439;-79
2021/12/15 04:00:58;;;;;;;109.45;45.85;;;;;;;6.15;87.06;101854.88;5044150;28;20499;-79
2021/12/15 04:03:34;;;;;;;113.43;45.33;;;;;;;6.19;87.42;101856.16;5037239;28;20409;-79
2021/12/15 04:06:02;;;;;;;113.80;46.72;;;;;;;6.20;87.19;101862.38;5040460;28;20394;-79
2021/12/15 04:08:29;;;;;;;124.25;48.95;;;;;;;6.21;86.88;101866.75;5047163;28;20405;-79
2021/12/15 04:10:55;;;;;;;122.38;47.50;;;;;;;6.22;87.22;101866.56;5036838;28;20482;-79
2021/12/15 04:13:21;;;;;;;113.75;46.08;;;;;;;6.18;87.07;101859.88;5036123;28;20390;-79
2021/12/15 04:15:53;;;;;;;124.35;47.63;;;;;;;6.19;86.88;101866.94;5036564;28;21001;-79
2021/12/15 04:18:19;;;;;;;122.90;46.90;;;;;;;6.21;87.52;101861.38;5044796;28;20390;-79
2021/12/15 04:20:44;;;;;;;109.67;45.37;;;;;;;6.22;87.40;101865.75;5037463;28;20394;-79
2021/12/15 04:23:12;;;;;;;100.93;42.83;;;;;;;6.20;87.21;101874.00;5031616;28;20420;-79
2021/12/15 04:25:39;;;;;;;94.20;41.92;;;;;;;6.20;86.94;101868.59;5030814;28;20882;-79
2021/12/15 04:28:10;;;;;;;95.55;42.97;;;;;;;6.22;86.89;101873.81;5043176;28;20492;-79
2021/12/15 04:30:44;;;;;;;86.68;38.13;;;;;;;6.16;87.36;101869.97;5048350;28;20951;-79
2021/12/15 04:33:23;;;;;;;89.10;40.25;;;;;;;6.11;87.72;101872.41;5036966;28;20408;-79
2021/12/15 04:35:49;;;;;;;81.75;37.55;;;;;;;6.11;87.25;101876.94;5039411;28;20415;-79
2021/12/15 04:38:14;;;;;;;80.00;37.40;;;;;;;6.13;87.15;101875.72;5041799;28;20775;-79
2021/12/15 04:40:41;;;;;;;80.23;37.43;;;;;;;6.15;87.58;101879.09;5033542;28;20411;-79
2021/12/15 04:43:07;;;;;;;89.75;38.40;;;;;;;6.17;87.45;101878.91;5047503;28;20419;-79
2021/12/15 04:45:32;;;;;;;93.33;38.77;;;;;;;6.17;87.73;101878.91;5041571;28;20789;-79
2021/12/15 04:47:58;;;;;;;77.23;35.40;;;;;;;6.20;87.43;101878.53;5034489;28;20890;-79
2021/12/15 04:50:28;;;;;;;82.07;34.80;;;;;;;6.14;86.98;101873.88;5037976;28;20494;-79
2021/12/15 04:52:54;;;;;;;79.00;35.15;;;;;;;6.15;87.52;101873.72;5038310;28;20461;-79
2021/12/15 04:55:21;;;;;;;85.32;35.67;;;;;;;6.18;87.13;101875.19;5047186;28;20395;-79
2021/12/15 04:57:47;;;;;;;73.47;31.83;;;;;;;6.19;87.15;101869.63;5040537;28;20403;-79
2021/12/15 05:00:17;;;;;;;82.97;33.42;;;;;;;6.10;87.75;101878.78;5040026;28;20414;-79
2021/12/15 05:02:46;;;;;;;88.53;36.03;;;;;;;6.05;87.76;101874.97;5044837;28;20395;-79
2021/12/15 05:05:12;;;;;;;80.65;34.72;;;;;;;6.05;87.60;101878.50;5032389;28;20393;-79
2021/12/15 05:07:38;;;;;;;88.23;35.53;;;;;;;6.13;87.44;101880.28;5038253;28;20522;-79
2021/12/15 05:10:05;;;;;;;76.07;34.37;;;;;;;6.16;88.01;101878.06;5030866;28;20444;-79
2021/12/15 05:12:31;;;;;;;95.53;37.95;;;;;;;6.17;87.47;101893.19;5035444;28;20967;-80
2021/12/15 05:14:59;;;;;;;126.97;55.97;;;;;;;6.15;87.56;101889.03;5044268;28;20484;-79
2021/12/15 05:17:27;;;;;;;146.38;68.20;;;;;;;6.18;87.67;101891.34;5042147;28;20420;-78
2021/12/15 05:19:58;;;;;;;122.50;48.03;;;;;;;6.15;87.42;101892.56;5030563;28;20913;-80
2021/12/15 05:22:24;;;;;;;111.88;47.88;;;;;;;6.14;87.43;101898.94;5037346;28;20409;-80
2021/12/15 05:24:49;;;;;;;98.37;40.53;;;;;;;6.14;87.68;101903.50;5040586;28;20422;-80
2021/12/15 05:27:16;;;;;;;119.00;42.80;;;;;;;6.13;87.94;101901.81;5040211;28;20499;-80
2021/12/15 05:29:44;;;;;;;144.03;48.10;;;;;;;6.16;87.47;101896.06;5035534;28;20394;-80
2021/12/15 05:32:11;;;;;;;188.03;49.73;;;;;;;6.12;87.71;101900.16;5036540;28;20404;-80
2021/12/15 05:34:38;;;;;;;195.40;53.83;;;;;;;6.17;88.10;101905.81;5036380;28;20403;-81
2021/12/15 05:37:05;;;;;;;188.40;53.85;;;;;;;6.05;88.74;101900.03;5046827;28;20420;-80
2021/12/15 05:39:31;;;;;;;160.88;51.50;;;;;;;6.12;88.05;101908.22;5044212;28;20455;-81
2021/12/15 05:41:56;;;;;;;231.40;72.07;;;;;;;6.09;87.77;101898.63;5043878;28;20882;-80
2021/12/15 05:44:22;;;;;;;195.20;63.30;;;;;;;6.02;88.88;101899.56;5047232;28;20402;-80
2021/12/15 05:46:49;;;;;;;219.40;69.88;;;;;;;6.08;89.21;101909.59;5048677;28;20424;-81
2021/12/15 05:49:14;;;;;;;190.82;64.57;;;;;;;6.10;88.18;101911.09;5041048;28;20409;-80
2021/12/15 05:51:39;;;;;;;160.07;54.27;;;;;;;6.07;88.56;101906.06;5039378;28;20497;-80
2021/12/15 05:54:06;;;;;;;156.93;56.33;;;;;;;6.09;88.24;101912.09;5040476;28;20407;-80
2021/12/15 05:56:32;;;;;;;148.80;46.00;;;;;;;6.15;87.91;101918.63;5029960;28;20417;-79
2021/12/15 05:58:57;;;;;;;141.35;47.22;;;;;;;6.17;87.81;101921.97;5045658;28;20385;-80
2021/12/15 06:01:23;;;;;;;150.57;46.13;;;;;;;6.10;87.96;101916.47;5045589;28;20485;-81
2021/12/15 06:03:48;;;;;;;130.43;42.65;;;;;;;6.10;88.33;101921.84;5051920;28;20939;-81
2021/12/15 06:06:14;;;;;;;117.53;40.30;;;;;;;6.14;88.45;101915.09;5044831;28;20398;-79
2021/12/15 06:08:40;;;;;;;119.90;39.67;;;;;;;6.17;88.20;101917.44;5049573;28;20397;-80
2021/12/15 06:11:05;;;;;;;123.47;42.10;;;;;;;6.16;87.57;101918.44;5041385;28;20783;-80
2021/12/15 06:13:31;;;;;;;108.50;38.08;;;;;;;6.17;87.71;101921.97;5053252;28;20403;-80
2021/12/15 06:15:58;;;;;;;114.15;39.70;;;;;;;6.09;87.38;101930.13;5057558;28;20417;-80
2021/12/15 06:18:24;;;;;;;106.85;38.28;;;;;;;6.11;87.98;101926.22;5051515;28;20801;-81
2021/12/15 06:20:51;;;;;;;116.60;41.60;;;;;;;6.15;88.12;101924.00;5047409;28;20421;-80
2021/12/15 06:23:19;;;;;;;121.65;42.28;;;;;;;6.13;87.47;101929.56;5053404;28;20398;-81
2021/12/15 06:25:47;;;;;;;130.20;40.63;;;;;;;6.12;87.40;101935.97;5045369;28;20401;-81
2021/12/15 06:28:14;;;;;;;120.78;39.08;;;;;;;6.13;87.17;101928.72;5043680;28;20505;-81
2021/12/15 06:30:39;;;;;;;122.72;40.00;;;;;;;6.12;87.74;101935.13;5040752;28;20411;-79
2021/12/15 06:33:05;;;;;;;117.20;39.23;;;;;;;6.15;87.56;101937.47;5055496;28;20524;-81
2021/12/15 06:35:34;;;;;;;113.20;37.42;;;;;;;6.17;87.70;101932.72;5049041;28;20414;-81
2021/12/15 06:38:00;;;;;;;117.43;39.72;;;;;;;6.13;87.34;101936.78;5049064;28;20458;-81
2021/12/15 06:40:25;;;;;;;131.13;44.40;;;;;;;6.10;87.60;101938.00;5049258;28;20417;-80
2021/12/15 06:42:51;;;;;;;120.38;42.40;;;;;;;6.12;87.63;101935.97;5055099;28;20884;-80
2021/12/15 06:45:20;;;;;;;135.30;42.13;;;;;;;6.13;87.38;101939.50;5042576;28;20427;-80
2021/12/15 06:58:33;;;;;;;126.60;43.42;;;;;;;6.19;87.19;101944.19;5040591;28;20480;-80
2021/12/15 07:01:01;;;;;;;123.95;42.47;;;;;;;6.13;87.33;101952.94;5052781;28;20486;-80
2021/12/15 07:03:26;;;;;;;118.17;40.57;;;;;;;6.15;87.78;101948.25;5041983;28;20402;-79
2021/12/15 07:05:55;;;;;;;124.17;42.73;;;;;;;6.15;87.45;101950.94;5052048;28;20389;-80
2021/12/15 07:08:20;;;;;;;125.93;43.47;;;;;;;6.14;87.14;101955.47;5042759;28;20405;-79
2021/12/15 07:10:49;;;;;;;141.53;45.20;;;;;;;6.15;86.96;101956.31;5049920;28;20471;-79
2021/12/15 07:13:16;;;;;;;135.80;45.13;;;;;;;6.13;87.54;101956.47;5043357;28;20403;-79
2021/12/15 07:15:43;;;;;;;143.40;45.20;;;;;;;6.11;87.46;101955.00;5033778;28;20510;-79
2021/12/15 07:18:11;;;;;;;133.52;43.35;;;;;;;6.10;87.66;101967.59;5041266;28;20394;-80
2021/12/15 07:20:48;;;;;;;131.18;42.20;;;;;;;6.17;87.39;101962.34;5046793;28;20861;-80
2021/12/15 07:23:18;;;;;;;128.63;44.38;;;;;;;6.19;86.99;101968.41;5042586;28;20410;-80
2021/12/15 07:25:46;;;;;;;126.13;42.33;;;;;;;6.19;87.27;101974.59;5052292;28;20397;-79
2021/12/15 07:28:17;;;;;;;125.25;41.42;;;;;;;6.21;87.32;101977.13;5049991;28;20475;-79
2021/12/15 07:30:54;;;;;;;128.00;43.40;;;;;;;6.24;86.77;101985.69;5052154;28;20585;-78
2021/12/15 07:33:20;;;;;;;123.03;44.38;;;;;;;6.25;87.08;101983.84;5049974;28;20397;-80
2021/12/15 07:35:46;;;;;;;124.90;48.78;;;;;;;6.27;86.56;101984.47;5038637;28;20468;-79
2021/12/15 07:38:11;;;;;;;123.65;47.45;;;;;;;6.28;87.11;101990.69;5049425;28;20403;-79
2021/12/15 07:40:37;;;;;;;117.03;48.85;;;;;;;6.28;86.76;101991.53;5043792;28;20454;-79
2021/12/15 07:43:12;;;;;;;143.45;46.97;;;;;;;6.28;86.81;101988.84;5046678;28;20405;-79
2021/12/15 07:45:51;;;;;;;133.53;45.57;;;;;;;6.28;86.80;101993.41;5041782;28;20387;-79
2021/12/15 07:48:19;;;;;;;124.40;44.75;;;;;;;6.29;86.69;102005.84;5033263;28;20395;-79
2021/12/15 07:50:49;;;;;;;126.25;45.95;;;;;;;6.27;86.94;102000.63;5045016;28;20459;-79
2021/12/15 07:53:15;;;;;;;125.17;45.30;;;;;;;6.31;86.72;102001.97;5036883;28;20434;-79
2021/12/15 07:55:41;;;;;;;128.15;44.83;;;;;;;6.30;86.99;102005.66;5049210;28;20410;-79
2021/12/15 07:58:08;;;;;;;129.23;46.63;;;;;;;6.32;86.65;102019.78;5040149;28;20406;-78
2021/12/15 08:00:35;;;;;;;118.15;43.05;;;;;;;6.34;86.85;102011.53;5048533;28;20927;-78
2021/12/15 08:03:00;;;;;;;123.67;44.33;;;;;;;6.31;86.49;102018.09;5060857;28;20417;-78
2021/12/15 08:05:26;;;;;;;123.03;43.07;;;;;;;6.34;86.21;102012.38;5042062;28;20421;-78
2021/12/15 08:07:52;;;;;;;122.57;44.17;;;;;;;6.36;86.22;102012.16;5040134;28;20460;-78
2021/12/15 08:10:19;;;;;;;147.77;45.50;;;;;;;6.33;87.04;102015.22;5040731;28;20409;-79
2021/12/15 08:12:46;;;;;;;114.80;40.92;;;;;;;6.37;86.78;102017.38;5044202;28;20456;-80
2021/12/15 08:15:12;;;;;;;117.53;45.53;;;;;;;6.39;86.90;102018.03;5033950;28;20424;-80
2021/12/15 08:17:39;;;;;;;140.80;47.50;;;;;;;6.37;86.96;102030.00;5047550;28;20727;-78
2021/12/15 08:20:07;;;;;;;131.77;45.00;;;;;;;6.43;86.78;102029.28;5040050;28;20455;-79
2021/12/15 08:22:33;;;;;;;139.80;46.63;;;;;;;6.43;87.18;102038.22;5036182;28;20450;-79
2021/12/15 08:24:58;;;;;;;157.20;50.67;;;;;;;6.43;86.91;102038.22;5044669;28;20439;-79
2021/12/15 08:27:24;;;;;;;161.27;49.53;;;;;;;6.47;87.14;102036.00;5032404;28;20560;-80
2021/12/15 08:29:49;;;;;;;224.00;53.37;;;;;;;6.50;86.58;102033.78;5040011;28;20409;-80
2021/12/15 08:32:14;;;;;;;173.47;51.63;;;;;;;6.54;86.95;102040.50;5038133;28;20414;-79
2021/12/15 08:34:40;;;;;;;186.95;54.75;;;;;;;6.50;87.47;102049.09;5045205;28;20405;-77
2021/12/15 08:37:06;;;;;;;169.73;50.70;;;;;;;6.49;87.08;102050.94;5039353;28;20888;-78
2021/12/15 08:39:31;;;;;;;190.10;55.35;;;;;;;6.47;87.76;102038.69;5042104;28;20480;-78
2021/12/15 08:41:57;;;;;;;180.17;53.50;;;;;;;6.52;87.05;102050.59;5043471;28;20510;-77
2021/12/15 08:44:23;;;;;;;193.83;56.50;;;;;;;6.50;87.00;102043.72;5039557;28;20465;-78
2021/12/15 08:46:49;;;;;;;180.85;56.53;;;;;;;6.56;87.13;102038.44;5043612;28;20408;-79
2021/12/15 08:49:17;;;;;;;184.90;55.60;;;;;;;6.61;86.99;102046.00;5043944;28;20455;-79
2021/12/15 08:51:43;;;;;;;181.52;57.42;;;;;;;6.67;86.56;102040.72;5041551;28;20405;-79
2021/12/15 08:54:14;;;;;;;188.77;56.58;;;;;;;6.68;87.23;102046.97;5042282;28;21070;-79
2021/12/15 08:56:41;;;;;;;151.30;50.08;;;;;;;6.68;86.87;102041.56;5035502;28;20456;-80
2021/12/15 08:59:07;;;;;;;154.07;51.83;;;;;;;6.63;87.03;102043.94;5044404;28;20848;-79
2021/12/15 09:01:33;;;;;;;140.18;47.83;;;;;;;6.67;86.49;102046.13;5041559;28;20444;-79
2021/12/15 09:03:59;;;;;;;128.37;46.63;;;;;;;6.70;86.49;102045.75;5032695;28;20442;-79
2021/12/15 09:06:25;;;;;;;132.55;47.63;;;;;;;6.77;86.67;102043.16;5030257;28;20447;-79
2021/12/15 09:08:50;;;;;;;112.70;44.53;;;;;;;6.74;86.48;102047.06;5034919;28;22744;-79
2021/12/15 09:11:19;;;;;;;122.55;46.08;;;;;;;6.76;86.08;102047.72;5023205;28;20542;-79
2021/12/15 09:13:50;;;;;;;110.25;42.70;;;;;;;6.76;85.96;102050.41;5025297;28;20411;-79
2021/12/15 09:16:16;;;;;;;116.78;43.00;;;;;;;6.79;85.65;102050.03;5024563;28;20424;-80
2021/12/15 09:18:44;;;;;;;109.38;42.67;;;;;;;6.81;86.69;102051.72;5022762;28;20904;-80
2021/12/15 09:21:11;;;;;;;98.25;40.30;;;;;;;6.85;86.37;102059.25;5022744;28;20413;-79
2021/12/15 09:23:37;;;;;;;102.60;40.58;;;;;;;6.90;86.33;102054.16;5022786;28;20496;-79
2021/12/15 09:26:05;;;;;;;98.67;41.57;;;;;;;6.94;85.43;102054.63;5026590;28;20880;-79
2021/12/15 09:28:32;;;;;;;100.07;39.97;;;;;;;6.91;85.63;102058.53;5024924;28;20409;-79
2021/12/15 09:30:59;;;;;;;90.03;40.05;;;;;;;6.97;85.80;102052.41;5023389;28;20405;-79
2021/12/15 09:33:28;;;;;;;82.43;36.63;;;;;;;7.00;85.83;102060.13;5023401;28;20417;-79
2021/12/15 09:35:57;;;;;;;82.97;38.30;;;;;;;7.05;85.58;102057.72;5021713;28;20780;-80
2021/12/15 09:38:25;;;;;;;80.90;37.20;;;;;;;7.07;85.40;102053.00;5025495;28;20452;-79
2021/12/15 09:40:53;;;;;;;81.65;38.47;;;;;;;7.16;85.35;102049.19;5040786;28;20420;-80
2021/12/15 09:43:19;;;;;;;77.05;38.47;;;;;;;7.28;84.55;102049.56;5029237;28;20414;-79
2021/12/15 09:46:02;;;;;;;69.35;36.35;;;;;;;7.31;84.72;102050.03;5023330;28;20457;-79
2021/12/15 10:05:09;;;;;;;58.03;32.38;;;;;;;7.47;83.68;102049.03;5039577;28;20746;-79
2021/12/15 10:18:42;;;;;;;57.92;31.60;;;;;;;7.42;84.03;102039.81;5041736;28;20525;-80
2021/12/15 10:21:19;;;;;;;58.65;31.50;;;;;;;7.54;84.00;102039.16;5032938;28;20414;-79
2021/12/15 10:23:46;;;;;;;49.17;28.98;;;;;;;7.61;83.91;102039.25;5044269;28;20407;-79
2021/12/15 10:26:11;;;;;;;50.67;30.08;;;;;;;7.61;83.99;102037.38;5040866;28;20409;-79
2021/12/15 10:28:38;;;;;;;48.13;29.83;;;;;;;7.65;83.67;102037.84;5033658;28;20817;-79
2021/12/15 10:31:11;;;;;;;44.45;27.48;;;;;;;7.67;83.77;102030.44;5045028;28;20464;-79
2021/12/15 10:33:42;;;;;;;46.92;28.33;;;;;;;7.63;83.52;102029.13;5040097;28;20414;-79
2021/12/15 10:36:15;;;;;;;47.72;29.35;;;;;;;7.59;83.63;102030.50;5040629;28;20771;-79
2021/12/15 10:38:45;;;;;;;46.65;28.17;;;;;;;7.66;83.03;102026.88;5044343;28;21116;-79
2021/12/15 10:41:12;;;;;;;47.55;28.98;;;;;;;7.75;83.00;102035.72;5039931;28;20430;-79
2021/12/15 10:43:40;;;;;;;50.03;29.60;;;;;;;7.80;82.93;102022.50;5037380;28;20416;-79
2021/12/15 10:46:10;;;;;;;47.72;28.88;;;;;;;7.81;82.53;102014.19;5031727;28;20403;-79
2021/12/15 10:48:47;;;;;;;49.90;29.33;;;;;;;7.80;82.95;102017.91;5031051;28;20474;-79
2021/12/15 10:51:27;;;;;;;41.63;26.95;;;;;;;7.76;82.29;102018.50;5042548;28;20481;-79
2021/12/15 10:53:55;;;;;;;43.13;27.45;;;;;;;7.75;82.49;102024.91;5056714;28;20414;-79
2021/12/15 10:56:29;;;;;;;45.57;26.53;;;;;;;7.73;82.49;102013.47;5039408;28;20424;-79
2021/12/15 10:58:58;;;;;;;41.33;25.63;;;;;;;7.86;82.19;102007.41;5040249;28;20412;-80
2021/12/15 11:02:00;;;;;;;32.42;19.95;;;;;;;8.13;80.77;102014.78;5048304;28;20405;-80
2021/12/15 11:04:44;;;;;;;32.10;18.55;;;;;;;8.39;80.37;102009.69;5007262;28;20425;-80
2021/12/15 11:07:39;;;;;;;27.10;18.05;;;;;;;8.46;79.75;102009.75;5040883;28;20472;-79
2021/12/15 11:10:06;;;;;;;29.92;18.88;;;;;;;8.51;79.07;102010.84;5036669;28;20510;-77
2021/12/15 11:12:50;;;;;;;23.55;15.35;;;;;;;8.52;78.83;102007.13;5037917;28;20405;-80
2021/12/15 11:15:18;;;;;;;20.07;13.90;;;;;;;8.33;78.36;102000.47;5040585;28;20496;-79
2021/12/15 11:17:48;;;;;;;12.85;9.77;;;;;;;8.25;78.12;101999.75;5042147;28;20423;-79
2021/12/15 11:20:24;;;;;;;11.53;7.80;;;;;;;8.19;77.12;102000.50;5058326;28;20831;-79
2021/12/15 11:22:54;;;;;;;6.67;6.03;;;;;;;8.12;76.83;101997.75;5033635;28;20507;-79
2021/12/15 11:25:31;;;;;;;6.07;5.30;;;;;;;8.04;76.88;101997.84;5034717;28;21030;-78
2021/12/15 11:27:59;;;;;;;6.40;5.65;;;;;;;8.02;75.80;101996.38;5033589;28;20421;-80
2021/12/15 11:30:30;;;;;;;7.43;5.65;;;;;;;7.94;76.36;101991.91;5034641;28;20421;-80
2021/12/15 11:32:58;;;;;;;7.85;6.53;;;;;;;7.96;75.95;101994.44;5047736;28;20418;-80
2021/12/15 11:35:31;;;;;;;8.33;6.73;;;;;;;7.95;75.81;101990.91;5035444;28;20411;-78
2021/12/15 11:38:05;;;;;;;7.63;6.88;;;;;;;7.98;76.15;101986.97;5052519;28;20876;-79
2021/12/15 11:40:50;;;;;;;9.27;7.47;;;;;;;8.02;75.80;101991.81;5043930;28;20423;-79
2021/12/15 11:43:48;;;;;;;11.85;8.27;;;;;;;8.03;75.93;101982.69;5040116;28;20768;-79
2021/12/15 11:46:21;;;;;;;8.98;8.05;;;;;;;8.04;76.67;101984.34;5046382;28;20435;-79
2021/12/15 11:49:08;;;;;;;11.23;8.88;;;;;;;8.05;76.61;101980.63;5043405;28;20417;-79
2021/12/15 11:51:41;;;;;;;10.65;9.32;;;;;;;8.06;76.43;101982.31;5064807;28;20389;-79
2021/12/15 11:54:32;;;;;;;12.95;9.30;;;;;;;8.07;76.46;101975.03;5039319;28;20494;-79
2021/12/15 11:57:19;;;;;;;11.25;9.65;;;;;;;8.04;76.42;101976.25;5042090;28;20432;-79
2021/12/15 11:59:49;;;;;;;10.97;9.40;;;;;;;8.06;76.20;101976.06;5042094;28;20488;-80
2021/12/15 12:02:33;;;;;;;10.70;8.73;;;;;;;8.00;76.60;101966.84;5042519;28;20383;-78
2021/12/15 12:05:02;;;;;;;11.60;9.82;;;;;;;7.98;76.74;101965.38;5035538;28;20537;-79
2021/12/15 12:07:46;;;;;;;11.57;9.77;;;;;;;7.96;76.76;101960.19;5043309;28;20395;-80
2021/12/15 12:10:19;;;;;;;12.75;9.30;;;;;;;7.96;76.79;101962.88;5030149;28;20407;-79
2021/12/15 12:12:53;;;;;;;12.30;9.57;;;;;;;7.97;76.44;101953.75;5029066;28;20486;-80
2021/12/15 12:15:22;;;;;;;13.20;10.40;;;;;;;8.02;76.31;101956.72;5031712;28;20395;-78
2021/12/15 12:17:50;;;;;;;12.02;9.15;;;;;;;8.06;76.62;101952.63;5031658;28;20473;-79
2021/12/15 12:20:19;;;;;;;11.30;9.57;;;;;;;8.06;76.30;101944.53;5037693;28;20407;-79
2021/12/15 12:22:47;;;;;;;12.32;10.10;;;;;;;8.09;76.39;101943.28;5045833;28;20403;-79
2021/12/15 12:25:16;;;;;;;12.32;10.25;;;;;;;8.15;75.74;101934.41;5049141;28;20405;-80
2021/12/15 12:27:45;;;;;;;11.45;9.73;;;;;;;8.10;75.51;101937.69;5038968;28;20506;-80
2021/12/15 12:30:15;;;;;;;10.65;9.05;;;;;;;8.14;75.33;101938.13;5055144;28;21098;-79